sensor_id;sensor_type;location;lat;lon;timestamp;P1;durP1;ratioP1;P2;durP2;ratioP2
47856;SDS011;33618;49.972;8.242;2023-07-02T01:45:56;2.90;;;2.25;;
47856;SDS011;33618;49.972;8.242;2023-07-02T01:48:24;2.88;;;2.00;;
47856;SDS011;33618;49.972;8.242;2023-07-02T01:50:51;3.22;;;2.13;;
47856;SDS011;33618;49.972;8.242;2023-07-02T01:53:18;2.88;;;2.17;;
47856;SDS011;33618;49.972;8.242;2023-07-02T01:55:44;3.85;;;2.60;;
47856;SDS011;33618;49.972;8.242;2023-07-02T01:58:11;5.88;;;2.60;;
47856;SDS011;33618;49.972;8.242;2023-07-02T02:00:38;3.45;;;2.30;;
47856;SDS011;33618;49.972;8.242;2023-07-02T02:03:05;4.40;;;2.50;;
47856;SDS011;33618;49.972;8.242;2023-07-02T02:05:32;4.25;;;2.65;;
47856;SDS011;33618;49.972;8.242;2023-07-02T02:07:59;3.67;;;2.75;;
47856;SDS011;33618;49.972;8.242;2023-07-02T02:10:26;3.88;;;2.35;;
47856;SDS011;33618;49.972;8.242;2023-07-02T02:12:53;4.22;;;2.67;;
47856;SDS011;33618;49.972;8.242;2023-07-02T02:15:20;3.50;;;2.55;;
47856;SDS011;33618;49.972;8.242;2023-07-02T02:17:47;4.35;;;2.90;;
47856;SDS011;33618;49.972;8.242;2023-07-02T02:20:14;4.25;;;2.85;;
47856;SDS011;33618;49.972;8.242;2023-07-02T02:22:41;4.28;;;3.03;;
47856;SDS011;33618;49.972;8.242;2023-07-02T02:25:08;5.03;;;2.60;;
47856;SDS011;33618;49.972;8.242;2023-07-02T02:27:35;5.95;;;3.00;;
47856;SDS011;33618;49.972;8.242;2023-07-02T02:30:02;5.03;;;2.88;;
47856;SDS011;33618;49.972;8.242;2023-07-02T02:32:30;4.50;;;2.95;;
47856;SDS011;33618;49.972;8.242;2023-07-02T02:34:57;6.38;;;3.10;;
47856;SDS011;33618;49.972;8.242;2023-07-02T02:37:24;4.32;;;3.03;;
47856;SDS011;33618;49.972;8.242;2023-07-02T02:39:51;4.90;;;3.13;;
47856;SDS011;33618;49.972;8.242;2023-07-02T02:42:18;5.30;;;3.20;;
47856;SDS011;33618;49.972;8.242;2023-07-02T02:44:44;4.57;;;3.72;;
47856;SDS011;33618;49.972;8.242;2023-07-02T02:47:11;5.03;;;3.47;;
47856;SDS011;33618;49.972;8.242;2023-07-02T02:49:38;7.30;;;3.97;;
47856;SDS011;33618;49.972;8.242;2023-07-02T02:52:06;4.97;;;3.65;;
47856;SDS011;33618;49.972;8.242;2023-07-02T02:54:33;5.60;;;3.55;;
47856;SDS011;33618;49.972;8.242;2023-07-02T02:57:00;8.88;;;3.90;;
47856;SDS011;33618;49.972;8.242;2023-07-02T02:59:27;5.25;;;3.83;;
47856;SDS011;33618;49.972;8.242;2023-07-02T03:01:54;7.03;;;3.88;;
47856;SDS011;33618;49.972;8.242;2023-07-02T03:04:21;5.95;;;3.75;;
47856;SDS011;33618;49.972;8.242;2023-07-02T03:06:51;5.13;;;4.13;;
47856;SDS011;33618;49.972;8.242;2023-07-02T03:09:19;7.68;;;4.07;;
47856;SDS011;33618;49.972;8.242;2023-07-02T03:11:46;6.45;;;4.47;;
47856;SDS011;33618;49.972;8.242;2023-07-02T03:14:14;7.95;;;4.40;;
47856;SDS011;33618;49.972;8.242;2023-07-02T03:16:41;8.55;;;4.00;;
47856;SDS011;33618;49.972;8.242;2023-07-02T03:19:09;10.85;;;4.50;;
47856;SDS011;33618;49.972;8.242;2023-07-02T03:21:35;6.65;;;4.35;;
47856;SDS011;33618;49.972;8.242;2023-07-02T03:24:02;7.47;;;4.53;;
47856;SDS011;33618;49.972;8.242;2023-07-02T03:26:29;7.88;;;4.93;;
47856;SDS011;33618;49.972;8.242;2023-07-02T03:28:56;8.18;;;4.40;;
47856;SDS011;33618;49.972;8.242;2023-07-02T03:31:23;6.78;;;4.45;;
47856;SDS011;33618;49.972;8.242;2023-07-02T03:33:50;12.10;;;5.18;;
47856;SDS011;33618;49.972;8.242;2023-07-02T03:36:17;7.15;;;4.53;;
47856;SDS011;33618;49.972;8.242;2023-07-02T03:38:44;6.95;;;4.40;;
47856;SDS011;33618;49.972;8.242;2023-07-02T03:41:10;8.60;;;4.55;;
47856;SDS011;33618;49.972;8.242;2023-07-02T03:43:37;6.60;;;4.50;;
47856;SDS011;33618;49.972;8.242;2023-07-02T03:46:05;6.65;;;5.00;;
47856;SDS011;33618;49.972;8.242;2023-07-02T03:48:31;8.82;;;5.03;;
47856;SDS011;33618;49.972;8.242;2023-07-02T03:50:58;8.68;;;5.07;;
47856;SDS011;33618;49.972;8.242;2023-07-02T03:53:25;9.75;;;5.20;;
47856;SDS011;33618;49.972;8.242;2023-07-02T03:55:52;10.48;;;5.05;;
47856;SDS011;33618;49.972;8.242;2023-07-02T03:58:19;8.50;;;4.97;;
47856;SDS011;33618;49.972;8.242;2023-07-02T04:00:46;8.40;;;5.07;;
47856;SDS011;33618;49.972;8.242;2023-07-02T04:03:16;9.75;;;4.90;;
47856;SDS011;33618;49.972;8.242;2023-07-02T04:05:43;7.85;;;4.80;;
47856;SDS011;33618;49.972;8.242;2023-07-02T04:08:10;13.07;;;4.72;;
47856;SDS011;33618;49.972;8.242;2023-07-02T04:10:37;6.97;;;5.13;;
47856;SDS011;33618;49.972;8.242;2023-07-02T04:13:04;5.88;;;4.50;;
47856;SDS011;33618;49.972;8.242;2023-07-02T04:15:31;10.27;;;4.35;;
47856;SDS011;33618;49.972;8.242;2023-07-02T04:17:58;9.55;;;4.90;;
47856;SDS011;33618;49.972;8.242;2023-07-02T04:20:25;6.35;;;4.43;;
47856;SDS011;33618;49.972;8.242;2023-07-02T04:22:52;8.20;;;4.50;;
47856;SDS011;33618;49.972;8.242;2023-07-02T04:25:39;8.20;;;4.55;;
47856;SDS011;33618;49.972;8.242;2023-07-02T04:28:26;7.75;;;4.88;;
47856;SDS011;33618;49.972;8.242;2023-07-02T04:30:53;8.48;;;4.80;;
47856;SDS011;33618;49.972;8.242;2023-07-02T04:33:20;7.80;;;4.82;;
47856;SDS011;33618;49.972;8.242;2023-07-02T04:35:47;9.60;;;4.93;;
47856;SDS011;33618;49.972;8.242;2023-07-02T04:38:13;7.50;;;4.70;;
47856;SDS011;33618;49.972;8.242;2023-07-02T04:40:40;8.77;;;4.60;;
47856;SDS011;33618;49.972;8.242;2023-07-02T04:43:11;7.70;;;4.57;;
47856;SDS011;33618;49.972;8.242;2023-07-02T04:45:38;9.30;;;5.30;;
47856;SDS011;33618;49.972;8.242;2023-07-02T04:48:06;12.13;;;4.78;;
47856;SDS011;33618;49.972;8.242;2023-07-02T04:50:33;9.77;;;5.47;;
47856;SDS011;33618;49.972;8.242;2023-07-02T04:53:00;9.15;;;5.53;;
47856;SDS011;33618;49.972;8.242;2023-07-02T04:55:27;11.57;;;5.97;;
47856;SDS011;33618;49.972;8.242;2023-07-02T04:57:54;13.75;;;6.00;;
47856;SDS011;33618;49.972;8.242;2023-07-02T05:00:21;8.98;;;5.75;;
47856;SDS011;33618;49.972;8.242;2023-07-02T05:02:48;11.52;;;6.43;;
47856;SDS011;33618;49.972;8.242;2023-07-02T05:05:16;11.88;;;6.15;;
47856;SDS011;33618;49.972;8.242;2023-07-02T05:07:43;10.93;;;6.57;;
47856;SDS011;33618;49.972;8.242;2023-07-02T05:10:10;11.02;;;6.78;;
47856;SDS011;33618;49.972;8.242;2023-07-02T05:12:37;10.70;;;6.22;;
47856;SDS011;33618;49.972;8.242;2023-07-02T05:15:04;12.50;;;7.05;;
47856;SDS011;33618;49.972;8.242;2023-07-02T05:17:32;9.10;;;5.85;;
47856;SDS011;33618;49.972;8.242;2023-07-02T05:20:02;13.13;;;6.90;;
47856;SDS011;33618;49.972;8.242;2023-07-02T05:22:49;11.55;;;6.88;;
47856;SDS011;33618;49.972;8.242;2023-07-02T05:25:16;13.07;;;6.45;;
47856;SDS011;33618;49.972;8.242;2023-07-02T05:27:43;14.30;;;7.50;;
47856;SDS011;33618;49.972;8.242;2023-07-02T05:30:10;11.90;;;6.53;;
47856;SDS011;33618;49.972;8.242;2023-07-02T05:32:38;13.68;;;6.88;;
47856;SDS011;33618;49.972;8.242;2023-07-02T05:35:06;13.82;;;7.00;;
47856;SDS011;33618;49.972;8.242;2023-07-02T05:37:33;12.45;;;7.18;;
47856;SDS011;33618;49.972;8.242;2023-07-02T05:40:00;15.38;;;7.45;;
47856;SDS011;33618;49.972;8.242;2023-07-02T05:42:26;12.55;;;7.20;;
47856;SDS011;33618;49.972;8.242;2023-07-02T05:44:53;11.50;;;7.30;;
47856;SDS011;33618;49.972;8.242;2023-07-02T05:47:20;13.80;;;6.85;;
47856;SDS011;33618;49.972;8.242;2023-07-02T05:49:47;14.07;;;7.32;;
47856;SDS011;33618;49.972;8.242;2023-07-02T05:52:14;10.65;;;7.45;;
47856;SDS011;33618;49.972;8.242;2023-07-02T05:54:41;13.52;;;7.10;;
47856;SDS011;33618;49.972;8.242;2023-07-02T05:57:08;14.38;;;7.25;;
47856;SDS011;33618;49.972;8.242;2023-07-02T05:59:35;14.35;;;7.70;;
47856;SDS011;33618;49.972;8.242;2023-07-02T06:02:01;11.38;;;6.65;;
47856;SDS011;33618;49.972;8.242;2023-07-02T06:04:28;15.57;;;7.95;;
47856;SDS011;33618;49.972;8.242;2023-07-02T06:06:55;13.32;;;7.80;;
47856;SDS011;33618;49.972;8.242;2023-07-02T06:09:23;14.50;;;7.55;;
47856;SDS011;33618;49.972;8.242;2023-07-02T06:11:50;15.13;;;7.47;;
47856;SDS011;33618;49.972;8.242;2023-07-02T06:14:17;16.77;;;7.88;;
47856;SDS011;33618;49.972;8.242;2023-07-02T06:16:44;13.65;;;8.02;;
47856;SDS011;33618;49.972;8.242;2023-07-02T06:19:11;20.38;;;8.27;;
47856;SDS011;33618;49.972;8.242;2023-07-02T06:21:38;15.93;;;8.57;;
47856;SDS011;33618;49.972;8.242;2023-07-02T06:24:05;18.63;;;8.38;;
47856;SDS011;33618;49.972;8.242;2023-07-02T06:26:32;14.45;;;8.77;;
47856;SDS011;33618;49.972;8.242;2023-07-02T06:28:59;16.58;;;8.57;;
47856;SDS011;33618;49.972;8.242;2023-07-02T06:31:26;15.50;;;8.70;;
47856;SDS011;33618;49.972;8.242;2023-07-02T06:33:53;17.08;;;8.73;;
47856;SDS011;33618;49.972;8.242;2023-07-02T06:36:20;15.32;;;8.38;;
47856;SDS011;33618;49.972;8.242;2023-07-02T06:38:47;18.08;;;9.18;;
47856;SDS011;33618;49.972;8.242;2023-07-02T06:41:14;18.02;;;8.70;;
47856;SDS011;33618;49.972;8.242;2023-07-02T06:43:42;18.65;;;9.05;;
47856;SDS011;33618;49.972;8.242;2023-07-02T06:46:13;17.17;;;9.00;;
47856;SDS011;33618;49.972;8.242;2023-07-02T06:48:40;16.88;;;9.25;;
47856;SDS011;33618;49.972;8.242;2023-07-02T06:51:07;14.13;;;9.30;;
47856;SDS011;33618;49.972;8.242;2023-07-02T06:53:35;12.95;;;8.38;;
47856;SDS011;33618;49.972;8.242;2023-07-02T06:56:03;17.80;;;9.82;;
47856;SDS011;33618;49.972;8.242;2023-07-02T06:58:30;15.73;;;9.05;;
47856;SDS011;33618;49.972;8.242;2023-07-02T07:00:57;14.75;;;8.82;;
47856;SDS011;33618;49.972;8.242;2023-07-02T07:03:24;17.83;;;8.43;;
47856;SDS011;33618;49.972;8.242;2023-07-02T07:05:51;15.43;;;8.98;;
47856;SDS011;33618;49.972;8.242;2023-07-02T07:08:18;16.80;;;9.18;;
47856;SDS011;33618;49.972;8.242;2023-07-02T07:10:45;17.65;;;8.80;;
47856;SDS011;33618;49.972;8.242;2023-07-02T07:13:12;18.73;;;8.68;;
47856;SDS011;33618;49.972;8.242;2023-07-02T07:15:39;17.17;;;9.18;;
47856;SDS011;33618;49.972;8.242;2023-07-02T07:18:08;18.13;;;9.38;;
47856;SDS011;33618;49.972;8.242;2023-07-02T07:20:35;17.48;;;8.95;;
47856;SDS011;33618;49.972;8.242;2023-07-02T07:23:02;12.38;;;8.88;;
47856;SDS011;33618;49.972;8.242;2023-07-02T07:25:29;15.82;;;8.63;;
47856;SDS011;33618;49.972;8.242;2023-07-02T07:27:57;16.85;;;9.25;;
47856;SDS011;33618;49.972;8.242;2023-07-02T07:30:25;13.65;;;8.63;;
47856;SDS011;33618;49.972;8.242;2023-07-02T07:32:52;17.92;;;9.30;;
47856;SDS011;33618;49.972;8.242;2023-07-02T07:35:20;16.13;;;9.02;;
47856;SDS011;33618;49.972;8.242;2023-07-02T07:37:48;13.43;;;8.65;;
47856;SDS011;33618;49.972;8.242;2023-07-02T07:40:15;13.65;;;9.05;;
47856;SDS011;33618;49.972;8.242;2023-07-02T07:42:42;16.80;;;8.45;;
47856;SDS011;33618;49.972;8.242;2023-07-02T07:45:10;17.70;;;9.40;;
47856;SDS011;33618;49.972;8.242;2023-07-02T07:47:38;16.88;;;9.70;;
47856;SDS011;33618;49.972;8.242;2023-07-02T07:50:06;15.00;;;8.80;;
47856;SDS011;33618;49.972;8.242;2023-07-02T07:52:37;16.33;;;8.60;;
47856;SDS011;33618;49.972;8.242;2023-07-02T07:55:06;15.70;;;9.05;;
47856;SDS011;33618;49.972;8.242;2023-07-02T07:57:34;13.60;;;8.35;;
47856;SDS011;33618;49.972;8.242;2023-07-02T08:00:02;18.33;;;8.80;;
47856;SDS011;33618;49.972;8.242;2023-07-02T08:02:31;16.58;;;8.95;;
47856;SDS011;33618;49.972;8.242;2023-07-02T08:04:59;15.57;;;8.95;;
47856;SDS011;33618;49.972;8.242;2023-07-02T08:07:36;16.95;;;9.18;;
47856;SDS011;33618;49.972;8.242;2023-07-02T08:10:03;16.05;;;8.55;;
47856;SDS011;33618;49.972;8.242;2023-07-02T08:12:30;14.38;;;8.25;;
47856;SDS011;33618;49.972;8.242;2023-07-02T08:14:57;13.82;;;8.65;;
47856;SDS011;33618;49.972;8.242;2023-07-02T08:17:24;15.15;;;8.63;;
47856;SDS011;33618;49.972;8.242;2023-07-02T08:19:51;16.85;;;9.25;;
47856;SDS011;33618;49.972;8.242;2023-07-02T08:22:18;13.30;;;9.10;;
47856;SDS011;33618;49.972;8.242;2023-07-02T08:24:45;14.15;;;9.35;;
47856;SDS011;33618;49.972;8.242;2023-07-02T08:27:12;13.63;;;9.15;;
47856;SDS011;33618;49.972;8.242;2023-07-02T08:29:40;14.52;;;9.00;;
47856;SDS011;33618;49.972;8.242;2023-07-02T08:32:07;12.88;;;9.02;;
47856;SDS011;33618;49.972;8.242;2023-07-02T08:34:34;14.68;;;8.60;;
47856;SDS011;33618;49.972;8.242;2023-07-02T08:37:01;12.02;;;8.20;;
47856;SDS011;33618;49.972;8.242;2023-07-02T08:39:28;12.02;;;8.27;;
47856;SDS011;33618;49.972;8.242;2023-07-02T08:41:55;12.68;;;7.85;;
47856;SDS011;33618;49.972;8.242;2023-07-02T08:44:22;13.73;;;8.13;;
47856;SDS011;33618;49.972;8.242;2023-07-02T08:46:49;13.63;;;8.23;;
47856;SDS011;33618;49.972;8.242;2023-07-02T08:49:17;15.00;;;8.30;;
47856;SDS011;33618;49.972;8.242;2023-07-02T08:51:45;13.02;;;8.05;;
47856;SDS011;33618;49.972;8.242;2023-07-02T08:54:12;16.80;;;8.80;;
47856;SDS011;33618;49.972;8.242;2023-07-02T08:56:40;13.45;;;8.02;;
47856;SDS011;33618;49.972;8.242;2023-07-02T08:59:08;14.48;;;8.77;;
47856;SDS011;33618;49.972;8.242;2023-07-02T09:01:45;16.63;;;8.80;;
47856;SDS011;33618;49.972;8.242;2023-07-02T09:06:45;12.77;;;8.25;;
47856;SDS011;33618;49.972;8.242;2023-07-02T09:09:15;14.02;;;7.65;;
47856;SDS011;33618;49.972;8.242;2023-07-02T09:11:48;16.92;;;7.63;;
47856;SDS011;33618;49.972;8.242;2023-07-02T09:14:31;13.40;;;7.63;;
47856;SDS011;33618;49.972;8.242;2023-07-02T09:17:02;13.60;;;8.05;;
47856;SDS011;33618;49.972;8.242;2023-07-02T09:19:34;11.23;;;7.15;;
47856;SDS011;33618;49.972;8.242;2023-07-02T09:22:01;15.32;;;7.90;;
47856;SDS011;33618;49.972;8.242;2023-07-02T09:24:29;13.77;;;7.60;;
47856;SDS011;33618;49.972;8.242;2023-07-02T09:26:59;11.50;;;8.02;;
47856;SDS011;33618;49.972;8.242;2023-07-02T09:29:31;13.55;;;7.88;;
47856;SDS011;33618;49.972;8.242;2023-07-02T09:32:00;13.13;;;8.07;;
47856;SDS011;33618;49.972;8.242;2023-07-02T09:34:37;12.32;;;8.00;;
47856;SDS011;33618;49.972;8.242;2023-07-02T09:37:07;12.77;;;7.80;;
47856;SDS011;33618;49.972;8.242;2023-07-02T09:39:34;14.00;;;7.97;;
47856;SDS011;33618;49.972;8.242;2023-07-02T09:42:05;15.18;;;8.45;;
47856;SDS011;33618;49.972;8.242;2023-07-02T09:44:33;14.27;;;8.48;;
47856;SDS011;33618;49.972;8.242;2023-07-02T09:47:02;12.15;;;8.02;;
47856;SDS011;33618;49.972;8.242;2023-07-02T09:49:49;11.32;;;7.88;;
47856;SDS011;33618;49.972;8.242;2023-07-02T09:52:33;12.52;;;7.70;;
47856;SDS011;33618;49.972;8.242;2023-07-02T09:55:01;11.77;;;7.75;;
47856;SDS011;33618;49.972;8.242;2023-07-02T09:57:30;13.30;;;7.93;;
47856;SDS011;33618;49.972;8.242;2023-07-02T10:00:01;13.60;;;8.05;;
47856;SDS011;33618;49.972;8.242;2023-07-02T10:02:28;12.13;;;7.38;;
47856;SDS011;33618;49.972;8.242;2023-07-02T10:04:56;11.48;;;7.95;;
47856;SDS011;33618;49.972;8.242;2023-07-02T10:07:31;11.27;;;7.68;;
47856;SDS011;33618;49.972;8.242;2023-07-02T10:09:59;9.00;;;7.10;;
47856;SDS011;33618;49.972;8.242;2023-07-02T10:12:27;11.77;;;7.72;;
47856;SDS011;33618;49.972;8.242;2023-07-02T10:14:57;10.02;;;7.40;;
47856;SDS011;33618;49.972;8.242;2023-07-02T10:17:34;10.55;;;6.88;;
47856;SDS011;33618;49.972;8.242;2023-07-02T10:20:03;9.68;;;6.78;;
47856;SDS011;33618;49.972;8.242;2023-07-02T10:22:46;12.75;;;7.65;;
47856;SDS011;33618;49.972;8.242;2023-07-02T10:25:25;13.15;;;8.13;;
47856;SDS011;33618;49.972;8.242;2023-07-02T10:27:53;11.63;;;7.95;;
47856;SDS011;33618;49.972;8.242;2023-07-02T10:30:30;9.95;;;7.45;;
47856;SDS011;33618;49.972;8.242;2023-07-02T10:33:21;11.98;;;8.50;;
47856;SDS011;33618;49.972;8.242;2023-07-02T10:35:50;11.68;;;8.23;;
47856;SDS011;33618;49.972;8.242;2023-07-02T10:38:20;14.25;;;8.52;;
47856;SDS011;33618;49.972;8.242;2023-07-02T10:40:57;12.43;;;8.15;;
47856;SDS011;33618;49.972;8.242;2023-07-02T10:43:29;14.25;;;8.73;;
47856;SDS011;33618;49.972;8.242;2023-07-02T10:46:28;11.73;;;7.15;;
47856;SDS011;33618;49.972;8.242;2023-07-02T11:13:50;13.77;;;8.85;;
47856;SDS011;33618;49.972;8.242;2023-07-02T11:16:19;14.35;;;8.25;;
47856;SDS011;33618;49.972;8.242;2023-07-02T11:18:49;14.70;;;8.50;;
47856;SDS011;33618;49.972;8.242;2023-07-02T11:21:16;14.90;;;9.65;;
47856;SDS011;33618;49.972;8.242;2023-07-02T11:23:43;14.82;;;9.77;;
47856;SDS011;33618;49.972;8.242;2023-07-02T11:26:10;15.88;;;8.98;;
47856;SDS011;33618;49.972;8.242;2023-07-02T11:28:46;18.10;;;9.48;;
47856;SDS011;33618;49.972;8.242;2023-07-02T11:31:23;13.77;;;9.10;;
47856;SDS011;33618;49.972;8.242;2023-07-02T11:33:52;11.85;;;8.48;;
47856;SDS011;33618;49.972;8.242;2023-07-02T11:36:20;11.75;;;8.82;;
47856;SDS011;33618;49.972;8.242;2023-07-02T11:38:49;14.23;;;9.65;;
47856;SDS011;33618;49.972;8.242;2023-07-02T11:41:18;15.52;;;9.68;;
47856;SDS011;33618;49.972;8.242;2023-07-02T11:43:47;15.32;;;9.07;;
47856;SDS011;33618;49.972;8.242;2023-07-02T11:46:14;14.48;;;9.63;;
47856;SDS011;33618;49.972;8.242;2023-07-02T11:49:31;13.77;;;9.25;;
47856;SDS011;33618;49.972;8.242;2023-07-02T11:51:58;14.27;;;9.48;;
47856;SDS011;33618;49.972;8.242;2023-07-02T11:54:25;13.25;;;8.68;;
47856;SDS011;33618;49.972;8.242;2023-07-02T11:56:52;17.75;;;9.30;;
47856;SDS011;33618;49.972;8.242;2023-07-02T11:59:19;13.75;;;9.00;;
47856;SDS011;33618;49.972;8.242;2023-07-02T12:01:46;12.38;;;8.77;;
47856;SDS011;33618;49.972;8.242;2023-07-02T12:04:13;12.85;;;9.13;;
47856;SDS011;33618;49.972;8.242;2023-07-02T12:06:40;14.50;;;9.05;;
47856;SDS011;33618;49.972;8.242;2023-07-02T12:09:07;11.95;;;8.15;;
47856;SDS011;33618;49.972;8.242;2023-07-02T12:11:34;15.23;;;8.57;;
47856;SDS011;33618;49.972;8.242;2023-07-02T12:14:01;12.95;;;8.02;;
47856;SDS011;33618;49.972;8.242;2023-07-02T12:16:28;14.55;;;9.35;;
47856;SDS011;33618;49.972;8.242;2023-07-02T12:18:55;13.75;;;8.45;;
47856;SDS011;33618;49.972;8.242;2023-07-02T12:21:21;13.02;;;9.15;;
47856;SDS011;33618;49.972;8.242;2023-07-02T12:23:49;12.88;;;8.57;;
47856;SDS011;33618;49.972;8.242;2023-07-02T12:26:15;12.20;;;8.80;;
47856;SDS011;33618;49.972;8.242;2023-07-02T12:28:42;11.88;;;8.63;;
47856;SDS011;33618;49.972;8.242;2023-07-02T12:31:09;16.92;;;8.82;;
47856;SDS011;33618;49.972;8.242;2023-07-02T12:33:36;17.48;;;10.10;;
47856;SDS011;33618;49.972;8.242;2023-07-02T12:36:03;12.93;;;9.10;;
47856;SDS011;33618;49.972;8.242;2023-07-02T12:38:30;14.15;;;8.88;;
47856;SDS011;33618;49.972;8.242;2023-07-02T12:40:57;11.63;;;8.98;;
47856;SDS011;33618;49.972;8.242;2023-07-02T12:43:24;13.63;;;8.98;;
47856;SDS011;33618;49.972;8.242;2023-07-02T12:45:51;14.32;;;8.60;;
47856;SDS011;33618;49.972;8.242;2023-07-02T12:48:18;13.75;;;8.55;;
47856;SDS011;33618;49.972;8.242;2023-07-02T12:50:57;13.05;;;8.73;;
47856;SDS011;33618;49.972;8.242;2023-07-02T12:54:02;16.63;;;8.80;;
47856;SDS011;33618;49.972;8.242;2023-07-02T12:56:29;14.82;;;8.68;;
47856;SDS011;33618;49.972;8.242;2023-07-02T12:58:56;13.05;;;8.13;;
47856;SDS011;33618;49.972;8.242;2023-07-02T13:01:23;16.20;;;9.25;;
47856;SDS011;33618;49.972;8.242;2023-07-02T13:03:50;15.63;;;9.20;;
47856;SDS011;33618;49.972;8.242;2023-07-02T13:06:17;13.45;;;8.82;;
47856;SDS011;33618;49.972;8.242;2023-07-02T13:08:44;13.93;;;9.13;;
47856;SDS011;33618;49.972;8.242;2023-07-02T13:11:11;13.30;;;8.93;;
47856;SDS011;33618;49.972;8.242;2023-07-02T13:13:38;13.13;;;8.77;;
47856;SDS011;33618;49.972;8.242;2023-07-02T13:16:05;13.63;;;8.43;;
47856;SDS011;33618;49.972;8.242;2023-07-02T13:18:32;13.77;;;8.90;;
47856;SDS011;33618;49.972;8.242;2023-07-02T13:20:59;13.65;;;8.30;;
47856;SDS011;33618;49.972;8.242;2023-07-02T13:23:26;11.82;;;8.43;;
47856;SDS011;33618;49.972;8.242;2023-07-02T13:25:53;17.58;;;9.23;;
47856;SDS011;33618;49.972;8.242;2023-07-02T13:28:20;13.98;;;8.88;;
47856;SDS011;33618;49.972;8.242;2023-07-02T13:30:47;12.70;;;9.02;;
47856;SDS011;33618;49.972;8.242;2023-07-02T13:33:14;13.98;;;8.68;;
47856;SDS011;33618;49.972;8.242;2023-07-02T13:35:41;13.30;;;8.43;;
47856;SDS011;33618;49.972;8.242;2023-07-02T13:38:10;11.98;;;8.70;;
47856;SDS011;33618;49.972;8.242;2023-07-02T13:40:37;14.13;;;9.10;;
47856;SDS011;33618;49.972;8.242;2023-07-02T13:43:03;13.73;;;8.55;;
47856;SDS011;33618;49.972;8.242;2023-07-02T13:45:30;17.70;;;9.35;;
47856;SDS011;33618;49.972;8.242;2023-07-02T13:47:57;14.32;;;9.25;;
47856;SDS011;33618;49.972;8.242;2023-07-02T13:50:24;14.50;;;9.38;;
47856;SDS011;33618;49.972;8.242;2023-07-02T13:52:51;11.98;;;9.20;;
47856;SDS011;33618;49.972;8.242;2023-07-02T13:55:18;16.42;;;9.48;;
47856;SDS011;33618;49.972;8.242;2023-07-02T13:57:45;17.13;;;9.70;;
47856;SDS011;33618;49.972;8.242;2023-07-02T14:00:12;13.80;;;9.52;;
47856;SDS011;33618;49.972;8.242;2023-07-02T14:02:39;15.07;;;9.10;;
47856;SDS011;33618;49.972;8.242;2023-07-02T14:05:06;14.73;;;9.45;;
47856;SDS011;33618;49.972;8.242;2023-07-02T14:07:33;14.90;;;9.13;;
47856;SDS011;33618;49.972;8.242;2023-07-02T14:10:00;17.20;;;9.68;;
47856;SDS011;33618;49.972;8.242;2023-07-02T14:12:27;15.98;;;9.35;;
47856;SDS011;33618;49.972;8.242;2023-07-02T14:14:54;15.57;;;9.52;;
47856;SDS011;33618;49.972;8.242;2023-07-02T14:17:21;14.30;;;9.48;;
47856;SDS011;33618;49.972;8.242;2023-07-02T14:19:52;12.02;;;9.18;;
47856;SDS011;33618;49.972;8.242;2023-07-02T14:22:18;14.77;;;8.93;;
47856;SDS011;33618;49.972;8.242;2023-07-02T14:24:45;16.05;;;10.07;;
47856;SDS011;33618;49.972;8.242;2023-07-02T14:27:12;16.77;;;9.63;;
47856;SDS011;33618;49.972;8.242;2023-07-02T14:29:39;13.82;;;9.35;;
47856;SDS011;33618;49.972;8.242;2023-07-02T14:32:06;18.58;;;9.43;;
47856;SDS011;33618;49.972;8.242;2023-07-02T14:34:34;14.10;;;9.50;;
47856;SDS011;33618;49.972;8.242;2023-07-02T14:37:02;14.05;;;9.52;;
47856;SDS011;33618;49.972;8.242;2023-07-02T14:39:29;15.40;;;9.52;;
47856;SDS011;33618;49.972;8.242;2023-07-02T14:41:56;16.02;;;9.27;;
47856;SDS011;33618;49.972;8.242;2023-07-02T14:44:23;12.73;;;9.20;;
47856;SDS011;33618;49.972;8.242;2023-07-02T14:46:50;11.98;;;9.00;;
47856;SDS011;33618;49.972;8.242;2023-07-02T14:49:17;14.48;;;9.55;;
47856;SDS011;33618;49.972;8.242;2023-07-02T14:51:45;14.77;;;9.50;;
47856;SDS011;33618;49.972;8.242;2023-07-02T14:54:12;14.93;;;9.27;;
47856;SDS011;33618;49.972;8.242;2023-07-02T14:56:39;13.05;;;9.30;;
47856;SDS011;33618;49.972;8.242;2023-07-02T14:59:06;13.07;;;8.80;;
47856;SDS011;33618;49.972;8.242;2023-07-02T15:01:33;17.02;;;9.18;;
47856;SDS011;33618;49.972;8.242;2023-07-02T15:04:02;16.27;;;8.80;;
47856;SDS011;33618;49.972;8.242;2023-07-02T15:06:30;16.67;;;9.05;;
47856;SDS011;33618;49.972;8.242;2023-07-02T15:08:58;14.25;;;9.57;;
47856;SDS011;33618;49.972;8.242;2023-07-02T15:11:25;14.00;;;9.80;;
47856;SDS011;33618;49.972;8.242;2023-07-02T15:13:54;15.18;;;9.80;;
47856;SDS011;33618;49.972;8.242;2023-07-02T15:16:21;13.80;;;9.43;;
47856;SDS011;33618;49.972;8.242;2023-07-02T15:18:48;14.23;;;9.18;;
47856;SDS011;33618;49.972;8.242;2023-07-02T15:21:15;14.90;;;9.25;;
47856;SDS011;33618;49.972;8.242;2023-07-02T15:23:43;13.70;;;9.52;;
47856;SDS011;33618;49.972;8.242;2023-07-02T15:26:10;16.65;;;10.57;;
47856;SDS011;33618;49.972;8.242;2023-07-02T15:28:37;15.35;;;10.18;;
47856;SDS011;33618;49.972;8.242;2023-07-02T15:31:08;12.80;;;9.07;;
47856;SDS011;33618;49.972;8.242;2023-07-02T15:33:37;15.07;;;9.02;;
47856;SDS011;33618;49.972;8.242;2023-07-02T15:36:05;15.45;;;9.50;;
47856;SDS011;33618;49.972;8.242;2023-07-02T15:38:35;14.45;;;9.68;;
47856;SDS011;33618;49.972;8.242;2023-07-02T15:43:35;12.40;;;9.20;;
47856;SDS011;33618;49.972;8.242;2023-07-02T15:46:02;13.68;;;9.30;;
47856;SDS011;33618;49.972;8.242;2023-07-02T15:48:30;15.82;;;9.40;;
47856;SDS011;33618;49.972;8.242;2023-07-02T15:50:57;13.57;;;9.20;;
47856;SDS011;33618;49.972;8.242;2023-07-02T15:53:24;14.10;;;9.57;;
47856;SDS011;33618;49.972;8.242;2023-07-02T15:55:55;14.77;;;9.38;;
47856;SDS011;33618;49.972;8.242;2023-07-02T15:58:26;14.10;;;9.40;;
47856;SDS011;33618;49.972;8.242;2023-07-02T16:00:55;17.35;;;9.75;;
47856;SDS011;33618;49.972;8.242;2023-07-02T16:03:33;14.10;;;9.35;;
47856;SDS011;33618;49.972;8.242;2023-07-02T16:06:00;13.85;;;8.90;;
47856;SDS011;33618;49.972;8.242;2023-07-02T16:08:29;16.63;;;9.13;;
47856;SDS011;33618;49.972;8.242;2023-07-02T16:10:56;15.48;;;9.02;;
47856;SDS011;33618;49.972;8.242;2023-07-02T16:13:23;12.23;;;8.73;;
47856;SDS011;33618;49.972;8.242;2023-07-02T16:15:50;12.30;;;8.40;;
47856;SDS011;33618;49.972;8.242;2023-07-02T16:18:17;14.27;;;8.88;;
47856;SDS011;33618;49.972;8.242;2023-07-02T16:20:53;13.63;;;9.00;;
47856;SDS011;33618;49.972;8.242;2023-07-02T16:23:24;14.10;;;9.10;;
47856;SDS011;33618;49.972;8.242;2023-07-02T16:26:01;13.63;;;8.63;;
47856;SDS011;33618;49.972;8.242;2023-07-02T16:28:31;12.75;;;9.00;;
47856;SDS011;33618;49.972;8.242;2023-07-02T16:31:00;14.25;;;8.45;;
47856;SDS011;33618;49.972;8.242;2023-07-02T16:33:27;15.82;;;9.60;;
47856;SDS011;33618;49.972;8.242;2023-07-02T16:36:03;13.38;;;8.68;;
47856;SDS011;33618;49.972;8.242;2023-07-02T16:38:33;13.82;;;8.80;;
47856;SDS011;33618;49.972;8.242;2023-07-02T16:41:02;12.98;;;8.93;;
47856;SDS011;33618;49.972;8.242;2023-07-02T16:43:32;13.30;;;8.63;;
47856;SDS011;33618;49.972;8.242;2023-07-02T16:45:59;12.60;;;9.27;;
47856;SDS011;33618;49.972;8.242;2023-07-02T17:00:48;17.70;;;9.23;;
47856;SDS011;33618;49.972;8.242;2023-07-02T17:03:15;13.63;;;8.98;;
47856;SDS011;33618;49.972;8.242;2023-07-02T17:05:44;13.50;;;9.23;;
47856;SDS011;33618;49.972;8.242;2023-07-02T17:08:12;13.35;;;8.68;;
47856;SDS011;33618;49.972;8.242;2023-07-02T17:10:40;18.70;;;9.07;;
47856;SDS011;33618;49.972;8.242;2023-07-02T17:13:07;11.13;;;8.30;;